createdAt,value
2023-03-24T00:00:25.922Z,59.69
2023-03-24T00:02:52.793Z,59.61
2023-03-24T00:05:22.347Z,59.80
2023-03-24T00:07:54.555Z,59.67
2023-03-24T00:10:22.821Z,59.93
2023-03-24T00:12:50.672Z,59.80
2023-03-24T00:15:21.422Z,59.98
2023-03-24T00:17:52.534Z,59.90
2023-03-24T00:20:22.297Z,60.13
2023-03-24T00:22:56.965Z,59.99
2023-03-24T00:25:29.798Z,60.23
2023-03-24T00:27:57.734Z,60.32
2023-03-24T00:30:26.106Z,60.30
2023-03-24T00:32:54.003Z,60.11
2023-03-24T00:35:21.913Z,60.05
2023-03-24T00:37:52.072Z,60.31
2023-03-24T00:40:21.107Z,59.98
2023-03-24T00:42:49.776Z,60.16
2023-03-24T00:45:23.406Z,60.24
2023-03-24T00:47:54.055Z,60.27
2023-03-24T00:50:27.193Z,60.23
2023-03-24T00:52:56.095Z,60.49
2023-03-24T00:55:23.323Z,60.27
2023-03-24T00:57:51.225Z,60.26
2023-03-24T01:00:24.755Z,60.29
2023-03-24T01:02:55.664Z,60.43
2023-03-24T01:05:28.468Z,60.28
2023-03-24T01:08:03.852Z,60.42
2023-03-24T01:10:35.279Z,60.50
2023-03-24T01:13:02.537Z,60.38
2023-03-24T01:15:33.390Z,60.27
2023-03-24T01:18:03.400Z,60.36
2023-03-24T01:20:35.470Z,60.49
2023-03-24T01:23:07.849Z,60.36
2023-03-24T01:25:37.193Z,60.46
2023-03-24T01:28:04.099Z,60.59
2023-03-24T01:30:31.905Z,60.58
2023-03-24T01:32:58.949Z,60.60
2023-03-24T01:35:28.947Z,60.53
2023-03-24T01:37:56.675Z,60.66
2023-03-24T01:40:28.213Z,60.61
2023-03-24T01:42:55.688Z,60.61
2023-03-24T01:45:56.424Z,60.57
2023-03-24T01:48:53.168Z,60.72
2023-03-24T01:51:37.052Z,60.58
2023-03-24T01:54:21.975Z,60.59
2023-03-24T01:57:14.201Z,60.46
2023-03-24T01:59:47.062Z,60.69
2023-03-24T02:02:36.281Z,60.60
2023-03-24T02:05:08.934Z,60.45
2023-03-24T02:08:11.452Z,60.41
2023-03-24T02:10:39.350Z,60.75
2023-03-24T02:13:07.602Z,60.85
2023-03-24T02:15:42.466Z,60.58
2023-03-24T02:18:25.749Z,60.65
2023-03-24T02:21:11.677Z,60.64
2023-03-24T02:23:44.348Z,60.59
2023-03-24T02:26:13.987Z,60.35
2023-03-24T02:28:57.910Z,60.53
2023-03-24T02:31:43.498Z,60.58
2023-03-24T02:34:27.392Z,60.81
2023-03-24T02:37:12.912Z,60.71
2023-03-24T02:39:48.837Z,60.71
2023-03-24T02:42:34.404Z,60.68
2023-03-24T02:45:18.188Z,60.50
2023-03-24T02:47:47.759Z,60.50
2023-03-24T02:50:21.770Z,60.64
2023-03-24T02:52:57.123Z,60.41
2023-03-24T02:55:29.679Z,60.54
2023-03-24T02:58:03.182Z,60.63
2023-03-24T03:00:59.531Z,60.50
2023-03-24T03:03:50.663Z,60.67
2023-03-24T03:06:27.734Z,60.67
2023-03-24T03:08:59.072Z,60.48
2023-03-24T03:11:26.001Z,60.68
2023-03-24T03:14:03.838Z,60.73
2023-03-24T03:16:43.439Z,60.74
2023-03-24T03:19:20.628Z,60.72
2023-03-24T03:21:50.042Z,60.68
2023-03-24T03:24:29.658Z,60.73
2023-03-24T03:27:03.133Z,60.74
2023-03-24T03:29:37.273Z,60.66
2023-03-24T03:32:10.140Z,60.81
2023-03-24T03:34:50.254Z,60.75
2023-03-24T03:37:26.501Z,60.87
2023-03-24T03:40:09.548Z,60.89
2023-03-24T03:42:40.147Z,60.83
2023-03-24T03:45:11.304Z,60.87
2023-03-24T03:47:39.412Z,60.85
2023-03-24T03:50:09.009Z,60.92
2023-03-24T03:52:39.031Z,60.76
2023-03-24T03:55:07.700Z,60.66
2023-03-24T03:57:36.245Z,60.74
2023-03-24T04:00:19.966Z,60.89
2023-03-24T04:03:26.800Z,60.92
2023-03-24T04:06:31.916Z,60.92
2023-03-24T04:09:18.032Z,60.92
2023-03-24T04:11:51.039Z,60.96
2023-03-24T04:15:02.086Z,60.83
2023-03-24T04:17:37.731Z,60.78
2023-03-24T04:20:17.359Z,60.94
2023-03-24T04:23:14.934Z,60.68
2023-03-24T04:26:01.601Z,60.53
2023-03-24T04:28:35.031Z,60.42
2023-03-24T04:31:07.424Z,60.46
2023-03-24T04:34:03.144Z,60.50
2023-03-24T04:36:42.716Z,60.66
2023-03-24T04:39:38.840Z,60.63
2023-03-24T04:42:13.992Z,60.66
2023-03-24T04:44:41.952Z,60.60
2023-03-24T04:47:47.935Z,60.51
2023-03-24T04:50:38.461Z,60.60
2023-03-24T04:53:10.686Z,60.77
2023-03-24T04:55:50.599Z,60.83
2023-03-24T04:58:49.479Z,60.40
2023-03-24T05:01:17.273Z,60.32
2023-03-24T05:03:55.465Z,60.19
2023-03-24T05:06:22.482Z,60.37
2023-03-24T05:08:49.218Z,60.42
2023-03-24T05:11:16.233Z,60.30
2023-03-24T05:13:51.573Z,60.22
2023-03-24T05:16:18.339Z,60.18
2023-03-24T05:18:56.342Z,60.22
2023-03-24T05:21:23.297Z,60.22
2023-03-24T05:23:50.168Z,60.27
2023-03-24T05:26:17.004Z,60.29
2023-03-24T05:29:04.500Z,60.31
2023-03-24T05:31:31.390Z,60.37
2023-03-24T05:34:07.131Z,60.23
2023-03-24T05:36:43.619Z,60.28
2023-03-24T05:39:11.861Z,60.41
2023-03-24T05:41:48.666Z,60.40
2023-03-24T05:44:15.654Z,60.47
2023-03-24T05:46:51.172Z,60.53
2023-03-24T05:49:18.195Z,60.28
2023-03-24T05:51:44.872Z,60.62
2023-03-24T05:54:11.540Z,60.49
2023-03-24T05:56:43.096Z,60.47
2023-03-24T05:59:11.571Z,60.48
2023-03-24T06:01:56.810Z,60.40
2023-03-24T06:04:57.630Z,60.46
2023-03-24T06:07:26.907Z,60.41
2023-03-24T06:09:57.997Z,60.38
2023-03-24T06:12:25.253Z,60.44
2023-03-24T06:14:56.044Z,60.32
2023-03-24T06:17:24.877Z,60.35
2023-03-24T06:20:02.849Z,60.41
2023-03-24T06:22:59.172Z,60.25
2023-03-24T06:25:33.617Z,60.48
2023-03-24T06:28:26.032Z,60.42
2023-03-24T06:30:56.535Z,60.47
2023-03-24T06:33:30.926Z,60.25
2023-03-24T06:36:01.812Z,60.43
2023-03-24T06:38:30.496Z,60.42
2023-03-24T06:41:01.537Z,60.34
2023-03-24T06:43:29.052Z,60.33
2023-03-24T06:45:56.325Z,60.49
2023-03-24T06:48:24.968Z,60.51
2023-03-24T06:50:58.552Z,60.60
2023-03-24T06:53:25.343Z,60.74
2023-03-24T06:55:52.266Z,60.61
2023-03-24T06:58:21.353Z,60.52
2023-03-24T07:01:07.179Z,60.70
2023-03-24T07:03:45.968Z,60.59
2023-03-24T07:06:16.576Z,60.58
2023-03-24T07:08:44.925Z,60.50
2023-03-24T07:11:12.073Z,60.58
2023-03-24T07:13:45.831Z,60.61
2023-03-24T07:16:12.619Z,60.39
2023-03-24T07:18:41.133Z,60.51
2023-03-24T07:21:08.470Z,60.25
2023-03-24T07:23:36.628Z,60.68
2023-03-24T07:26:09.857Z,60.58
2023-03-24T07:28:50.104Z,60.53
2023-03-24T07:31:28.238Z,60.73
2023-03-24T07:34:02.014Z,59.88
2023-03-24T07:36:29.266Z,59.98
2023-03-24T07:38:57.414Z,60.09
2023-03-24T07:41:31.398Z,60.11
2023-03-24T07:44:02.696Z,59.71
2023-03-24T07:46:52.768Z,59.83
2023-03-24T07:49:21.477Z,59.72
2023-03-24T07:52:01.774Z,59.54
2023-03-24T07:54:36.602Z,59.35
2023-03-24T07:57:03.662Z,59.44
2023-03-24T07:59:30.701Z,59.47
2023-03-24T08:02:29.636Z,59.24
2023-03-24T08:05:20.632Z,59.30
2023-03-24T08:08:08.246Z,59.13
2023-03-24T08:10:35.237Z,59.15
2023-03-24T08:13:02.605Z,59.15
2023-03-24T08:15:29.986Z,58.92
2023-03-24T08:17:57.259Z,59.43
2023-03-24T08:20:27.103Z,59.66
2023-03-24T08:22:54.761Z,60.10
2023-03-24T08:25:24.843Z,59.65
2023-03-24T08:27:52.172Z,59.62
2023-03-24T08:30:24.934Z,59.71
2023-03-24T08:32:54.842Z,59.56
2023-03-24T08:35:26.112Z,59.66
2023-03-24T08:37:53.209Z,59.63
2023-03-24T08:40:23.947Z,59.61
2023-03-24T08:42:53.624Z,59.70
2023-03-24T08:45:22.230Z,59.65
2023-03-24T08:47:52.126Z,59.66
2023-03-24T08:50:25.984Z,59.69
2023-03-24T08:52:52.854Z,59.46
2023-03-24T08:55:21.411Z,59.48
2023-03-24T08:57:48.835Z,59.61
2023-03-24T09:00:16.692Z,59.72
2023-03-24T09:02:45.533Z,59.78
2023-03-24T09:05:13.358Z,59.76
2023-03-24T09:07:39.959Z,59.39
2023-03-24T09:10:08.130Z,59.49
2023-03-24T09:12:38.597Z,59.33
2023-03-24T09:15:07.434Z,59.48
2023-03-24T09:17:35.188Z,59.34
2023-03-24T09:20:08.375Z,59.50
2023-03-24T09:22:56.137Z,59.36
2023-03-24T09:25:22.971Z,59.57
2023-03-24T09:27:50.389Z,59.42
2023-03-24T09:30:18.490Z,59.40
2023-03-24T09:32:46.084Z,59.27
2023-03-24T09:35:13.659Z,59.24
2023-03-24T09:37:43.122Z,59.24
2023-03-24T09:40:21.472Z,59.33
2023-03-24T09:42:54.881Z,59.30
2023-03-24T09:45:23.968Z,59.23
2023-03-24T09:47:58.654Z,59.30
2023-03-24T09:50:41.098Z,59.30
2023-03-24T09:53:32.320Z,59.30
2023-03-24T09:56:07.291Z,59.03
2023-03-24T09:58:34.161Z,59.09
2023-03-24T10:01:01.224Z,58.75
2023-03-24T10:03:28.059Z,58.96
2023-03-24T10:06:08.133Z,58.73
2023-03-24T10:08:42.261Z,58.69
2023-03-24T10:11:18.960Z,58.74
2023-03-24T10:14:12.758Z,58.77
2023-03-24T10:16:57.984Z,58.74
2023-03-24T10:19:30.918Z,58.69
2023-03-24T10:22:09.352Z,58.62
2023-03-24T10:24:37.857Z,59.31
2023-03-24T10:27:10.382Z,59.80
2023-03-24T10:29:38.706Z,59.48
2023-03-24T10:32:22.415Z,59.38
2023-03-24T10:34:55.470Z,59.22
2023-03-24T10:37:22.216Z,59.33
2023-03-24T10:39:49.620Z,59.12
2023-03-24T10:42:21.934Z,58.98
2023-03-24T10:44:50.993Z,58.88
2023-03-24T10:47:24.248Z,58.77
2023-03-24T10:50:14.165Z,58.77
2023-03-24T10:52:46.485Z,58.62
2023-03-24T10:55:19.346Z,58.67
2023-03-24T10:57:53.671Z,58.84
2023-03-24T11:00:24.559Z,58.63
2023-03-24T11:03:00.789Z,58.40
2023-03-24T11:05:39.258Z,58.46
2023-03-24T11:08:28.605Z,58.35
2023-03-24T11:10:56.088Z,58.31
2023-03-24T11:13:23.013Z,58.36
2023-03-24T11:16:05.549Z,58.27
2023-03-24T11:18:32.531Z,58.14
2023-03-24T11:21:04.349Z,58.13
2023-03-24T11:23:32.409Z,58.05
2023-03-24T11:26:30.008Z,58.24
2023-03-24T11:29:00.156Z,58.20
2023-03-24T11:31:38.326Z,58.22
2023-03-24T11:34:20.046Z,58.34
2023-03-24T11:36:59.667Z,58.41
2023-03-24T11:39:29.100Z,58.24
2023-03-24T11:42:10.972Z,58.36
2023-03-24T11:44:37.944Z,57.67
2023-03-24T11:47:11.845Z,58.12
2023-03-24T11:50:04.469Z,58.30
2023-03-24T11:52:55.580Z,58.33
2023-03-24T11:55:32.280Z,58.14
2023-03-24T11:58:10.784Z,58.27
2023-03-24T12:00:46.741Z,58.27
2023-03-24T12:03:19.898Z,58.23
2023-03-24T12:06:17.033Z,58.25
2023-03-24T12:08:54.409Z,58.17
2023-03-24T12:11:50.375Z,58.34
2023-03-24T12:14:30.765Z,58.21
2023-03-24T12:17:14.844Z,58.22
2023-03-24T12:20:05.691Z,58.11
2023-03-24T12:25:38.468Z,58.08
2023-03-24T12:28:11.718Z,58.10
2023-03-24T12:30:54.003Z,58.12
2023-03-24T12:33:24.103Z,57.95
2023-03-24T12:36:31.740Z,58.26
2023-03-24T12:39:12.897Z,58.09
2023-03-24T12:41:55.308Z,58.22
2023-03-24T12:44:58.798Z,58.14
2023-03-24T12:47:41.664Z,58.25
2023-03-24T12:50:23.695Z,58.23
2023-03-24T12:52:58.032Z,58.29
2023-03-24T12:55:46.871Z,58.29
2023-03-24T12:58:26.873Z,58.42
2023-03-24T13:01:01.276Z,58.50
2023-03-24T13:03:39.501Z,58.43
2023-03-24T13:06:32.980Z,58.56
2023-03-24T13:09:37.048Z,58.56
2023-03-24T13:12:13.625Z,58.45
2023-03-24T13:15:00.381Z,58.61
2023-03-24T13:17:51.038Z,58.58
2023-03-24T13:20:33.060Z,58.46
2023-03-24T13:23:19.623Z,58.29
2023-03-24T13:26:08.942Z,58.25
2023-03-24T13:28:44.745Z,58.47
2023-03-24T13:31:14.021Z,58.40
2023-03-24T13:33:41.212Z,58.57
2023-03-24T13:36:32.628Z,58.39
2023-03-24T13:39:08.319Z,58.41
2023-03-24T13:41:39.874Z,58.26
2023-03-24T13:44:29.763Z,58.35
2023-03-24T13:47:15.198Z,58.04
2023-03-24T13:49:59.574Z,57.86
2023-03-24T13:52:32.941Z,57.76
2023-03-24T13:55:02.786Z,57.70
2023-03-24T13:57:30.161Z,57.89
2023-03-24T14:00:12.269Z,57.74
2023-03-24T14:02:50.380Z,57.88
2023-03-24T14:05:23.986Z,57.82
2023-03-24T14:07:51.979Z,58.31
2023-03-24T14:10:20.773Z,58.34
2023-03-24T14:12:54.492Z,58.82
2023-03-24T14:15:27.362Z,58.64
2023-03-24T14:17:56.568Z,58.41
2023-03-24T14:20:36.250Z,58.59
2023-03-24T14:23:04.504Z,58.45
2023-03-24T14:25:32.937Z,58.63
2023-03-24T14:28:21.619Z,58.43
2023-03-24T14:31:17.032Z,58.49
2023-03-24T14:34:02.110Z,58.54
2023-03-24T14:36:39.380Z,58.54
2023-03-24T14:39:19.985Z,58.52
2023-03-24T14:41:51.807Z,58.55
2023-03-24T14:44:51.370Z,58.28
2023-03-24T14:47:38.814Z,58.46
2023-03-24T14:50:21.622Z,58.33
2023-03-24T14:52:53.030Z,58.51
2023-03-24T14:55:21.801Z,58.65
2023-03-24T14:57:57.727Z,58.60
2023-03-24T15:01:06.614Z,58.65
2023-03-24T15:03:50.342Z,58.72
2023-03-24T15:06:23.363Z,58.57
2023-03-24T15:08:55.302Z,58.53
2023-03-24T15:11:26.092Z,58.45
2023-03-24T15:13:59.852Z,58.61
2023-03-24T15:16:32.029Z,58.56
2023-03-24T15:19:20.385Z,58.63
2023-03-24T15:22:02.597Z,58.74
2023-03-24T15:24:31.917Z,58.71
2023-03-24T15:27:07.714Z,58.59
2023-03-24T15:29:41.959Z,58.79
2023-03-24T15:32:21.201Z,58.65
2023-03-24T15:34:54.937Z,58.42
2023-03-24T15:37:25.759Z,58.43
2023-03-24T15:40:01.909Z,58.40
2023-03-24T15:42:41.848Z,58.13
2023-03-24T15:45:22.159Z,57.92
2023-03-24T15:47:51.933Z,57.73
2023-03-24T15:50:56.199Z,57.53
2023-03-24T15:53:44.850Z,57.11
2023-03-24T15:56:31.561Z,56.88
2023-03-24T15:59:04.020Z,57.01
2023-03-24T16:01:31.445Z,56.94
2023-03-24T16:04:01.255Z,56.61
2023-03-24T16:06:33.653Z,56.17
2023-03-24T16:09:02.187Z,55.92
2023-03-24T16:11:29.613Z,55.89
2023-03-24T16:13:57.733Z,55.66
2023-03-24T16:16:28.413Z,55.17
2023-03-24T16:18:56.926Z,55.32
2023-03-24T16:21:28.997Z,55.41
2023-03-24T16:23:57.742Z,55.63
2023-03-24T16:26:25.817Z,55.11
2023-03-24T16:28:54.076Z,54.57
2023-03-24T16:31:24.766Z,54.54
2023-03-24T16:33:52.366Z,54.35
2023-03-24T16:36:22.128Z,54.64
2023-03-24T16:38:52.190Z,54.93
2023-03-24T16:41:18.973Z,55.06
2023-03-24T16:43:46.091Z,54.82
2023-03-24T16:46:18.731Z,55.34
2023-03-24T16:48:45.630Z,55.83
2023-03-24T16:51:16.901Z,55.78
2023-03-24T16:53:45.310Z,55.88
2023-03-24T16:56:17.160Z,55.76
2023-03-24T16:58:45.385Z,55.93
2023-03-24T17:01:26.637Z,56.05
2023-03-24T17:04:02.420Z,55.67
2023-03-24T17:06:32.365Z,55.60
2023-03-24T17:08:59.612Z,55.69
2023-03-24T17:11:28.091Z,55.60
2023-03-24T17:13:57.277Z,55.79
2023-03-24T17:16:25.776Z,55.87
2023-03-24T17:18:52.800Z,55.89
2023-03-24T17:21:20.106Z,56.03
2023-03-24T17:23:49.335Z,55.81
2023-03-24T17:26:16.975Z,55.99
2023-03-24T17:28:43.942Z,55.70
2023-03-24T17:31:10.865Z,55.97
2023-03-24T17:33:37.514Z,55.86
2023-03-24T17:36:04.849Z,55.97
2023-03-24T17:38:31.579Z,55.91
2023-03-24T17:41:03.157Z,55.76
2023-03-24T17:43:30.664Z,55.65
2023-03-24T17:45:58.390Z,55.86
2023-03-24T17:48:26.434Z,55.67
2023-03-24T17:50:53.803Z,55.71
2023-03-24T17:53:28.521Z,55.60
2023-03-24T17:55:58.534Z,55.77
2023-03-24T17:58:29.343Z,55.70
2023-03-24T18:00:58.477Z,55.44
2023-03-24T18:03:37.554Z,55.76
2023-03-24T18:06:12.026Z,55.38
2023-03-24T18:08:39.677Z,55.51
2023-03-24T18:11:11.644Z,55.39
2023-03-24T18:13:38.605Z,55.26
2023-03-24T18:16:20.012Z,55.33
2023-03-24T18:18:49.135Z,55.14
2023-03-24T18:21:16.120Z,54.95
2023-03-24T18:23:42.818Z,55.42
2023-03-24T18:26:09.712Z,55.33
2023-03-24T18:28:37.998Z,55.10
2023-03-24T18:31:20.135Z,55.33
2023-03-24T18:33:48.943Z,55.55
2023-03-24T18:36:21.366Z,55.47
2023-03-24T18:38:48.470Z,55.10
2023-03-24T18:41:16.791Z,55.24
2023-03-24T18:43:47.603Z,54.76
2023-03-24T18:46:14.880Z,54.91
2023-03-24T18:48:42.810Z,54.64
2023-03-24T18:51:10.060Z,54.92
2023-03-24T18:53:37.477Z,54.64
2023-03-24T18:56:05.999Z,55.13
2023-03-24T18:58:33.774Z,54.63
2023-03-24T19:01:07.015Z,54.80
2023-03-24T19:03:35.793Z,55.01
2023-03-24T19:06:06.315Z,54.85
2023-03-24T19:08:34.774Z,54.84
2023-03-24T19:11:01.621Z,55.05
2023-03-24T19:13:28.409Z,54.59
2023-03-24T19:15:55.317Z,54.97
2023-03-24T19:18:23.755Z,54.93
2023-03-24T19:20:55.956Z,54.80
2023-03-24T19:23:26.741Z,54.63
2023-03-24T19:25:55.148Z,54.37
2023-03-24T19:28:29.644Z,54.39
2023-03-24T19:30:58.151Z,54.40
2023-03-24T19:33:25.765Z,54.42
2023-03-24T19:35:53.188Z,54.53
2023-03-24T19:38:24.766Z,54.22
2023-03-24T19:40:53.895Z,54.43
2023-03-24T19:43:21.231Z,54.26
2023-03-24T19:45:51.618Z,54.50
2023-03-24T19:48:19.331Z,54.16
2023-03-24T19:50:49.110Z,54.18
2023-03-24T19:53:16.088Z,54.23
2023-03-24T19:55:42.903Z,54.25
2023-03-24T19:58:09.814Z,54.28
2023-03-24T20:00:36.977Z,53.97
2023-03-24T20:03:03.780Z,54.16
2023-03-24T20:05:30.694Z,54.06
2023-03-24T20:07:59.734Z,54.19
2023-03-24T20:10:27.210Z,54.17
2023-03-24T20:12:54.751Z,54.13
2023-03-24T20:15:21.960Z,54.11
2023-03-24T20:17:48.904Z,54.24
2023-03-24T20:20:15.686Z,54.39
2023-03-24T20:22:45.598Z,54.21
2023-03-24T20:25:14.573Z,54.39
2023-03-24T20:27:41.481Z,54.52
2023-03-24T20:30:09.436Z,54.26
2023-03-24T20:32:37.006Z,54.25
2023-03-24T20:35:05.555Z,54.28
2023-03-24T20:37:35.575Z,54.16
2023-03-24T20:40:05.348Z,54.41
2023-03-24T20:42:33.115Z,54.60
2023-03-24T20:45:00.145Z,53.93
2023-03-24T20:47:26.879Z,54.53
2023-03-24T20:49:53.638Z,54.27
2023-03-24T20:52:20.780Z,54.56
2023-03-24T20:54:47.540Z,54.38
2023-03-24T20:57:14.370Z,54.14
2023-03-24T20:59:41.223Z,54.46
2023-03-24T21:02:09.959Z,54.64
2023-03-24T21:04:36.849Z,54.66
2023-03-24T21:07:03.689Z,54.63
2023-03-24T21:09:30.719Z,54.29
2023-03-24T21:11:57.520Z,54.31
2023-03-24T21:14:24.578Z,54.22
2023-03-24T21:16:51.672Z,54.44
2023-03-24T21:19:18.751Z,54.28
2023-03-24T21:21:49.451Z,54.61
2023-03-24T21:24:17.599Z,54.69
2023-03-24T21:26:46.207Z,54.50
2023-03-24T21:29:13.158Z,54.38
2023-03-24T21:31:41.757Z,54.63
2023-03-24T21:34:08.759Z,54.71
2023-03-24T21:36:38.533Z,54.48
2023-03-24T21:39:10.300Z,54.25
2023-03-24T21:41:39.013Z,54.60
2023-03-24T21:44:08.490Z,54.26
2023-03-24T21:46:36.774Z,54.40
2023-03-24T21:49:04.847Z,54.43
2023-03-24T21:51:36.807Z,54.15
2023-03-24T21:54:06.689Z,54.53
2023-03-24T21:56:34.972Z,54.15
2023-03-24T21:59:01.804Z,54.15
2023-03-24T22:01:28.789Z,54.14
2023-03-24T22:03:55.880Z,54.52
2023-03-24T22:06:23.097Z,54.26
2023-03-24T22:08:50.112Z,54.54
2023-03-24T22:11:19.053Z,54.54
2023-03-24T22:13:46.872Z,54.64
2023-03-24T22:16:14.441Z,54.63
2023-03-24T22:18:41.586Z,54.57
2023-03-24T22:21:10.636Z,54.51
2023-03-24T22:23:40.073Z,54.75
2023-03-24T22:26:10.753Z,54.33
2023-03-24T22:28:38.619Z,54.81
2023-03-24T22:31:10.805Z,54.80
2023-03-24T22:33:38.489Z,54.39
2023-03-24T22:36:06.280Z,54.76
2023-03-24T22:38:34.339Z,54.54
2023-03-24T22:41:06.776Z,54.73
2023-03-24T22:43:35.731Z,54.76
2023-03-24T22:46:03.715Z,54.34
2023-03-24T22:48:30.919Z,54.39
2023-03-24T22:50:57.663Z,54.79
2023-03-24T22:53:24.455Z,54.42
2023-03-24T22:55:51.692Z,54.52
2023-03-24T22:58:18.699Z,54.40
2023-03-24T23:00:48.602Z,54.34
2023-03-24T23:03:16.053Z,54.52
2023-03-24T23:05:46.427Z,54.48
2023-03-24T23:08:15.581Z,54.33
2023-03-24T23:10:43.327Z,54.70
2023-03-24T23:13:11.808Z,54.82
2023-03-24T23:15:42.793Z,54.97
2023-03-24T23:18:10.883Z,55.01
2023-03-24T23:20:37.686Z,54.72
2023-03-24T23:23:06.770Z,55.01
2023-03-24T23:25:34.740Z,55.03
2023-03-24T23:28:01.662Z,55.40
2023-03-24T23:30:28.482Z,55.48
2023-03-24T23:32:57.396Z,55.20
2023-03-24T23:35:24.182Z,55.36
2023-03-24T23:37:50.811Z,55.54
2023-03-24T23:40:18.036Z,55.54
2023-03-24T23:42:46.850Z,55.77
2023-03-24T23:45:18.196Z,55.82
2023-03-24T23:47:47.526Z,55.82
2023-03-24T23:50:17.387Z,56.10
2023-03-24T23:52:44.065Z,55.85
2023-03-24T23:55:13.495Z,56.47
2023-03-24T23:57:40.606Z,56.43
